sensor_id;sensor_type;location;lat;lon;timestamp;pressure;altitude;pressure_sealevel;temperature;humidity
15674;BME280;7937;48.090;16.212;2023-02-28T00:02:17;98619.94;;;0.63;57.47
15674;BME280;7937;48.090;16.212;2023-02-28T00:05:22;98639.03;;;0.73;57.38
15674;BME280;7937;48.090;16.212;2023-02-28T00:08:24;98648.50;;;0.66;58.26
15674;BME280;7937;48.090;16.212;2023-02-28T00:11:26;98661.59;;;0.66;58.74
15674;BME280;7937;48.090;16.212;2023-02-28T00:14:30;98655.84;;;0.62;58.60
15674;BME280;7937;48.090;16.212;2023-02-28T00:17:32;98661.25;;;0.61;58.98
15674;BME280;7937;48.090;16.212;2023-02-28T00:20:34;98655.31;;;0.59;59.00
15674;BME280;7937;48.090;16.212;2023-02-28T00:23:37;98644.63;;;0.52;58.81
15674;BME280;7937;48.090;16.212;2023-02-28T00:26:39;98662.00;;;0.53;59.00
15674;BME280;7937;48.090;16.212;2023-02-28T00:29:41;98600.63;;;0.12;59.22
15674;BME280;7937;48.090;16.212;2023-02-28T00:32:45;98663.78;;;0.44;60.01
15674;BME280;7937;48.090;16.212;2023-02-28T00:35:47;98658.53;;;0.44;60.01
15674;BME280;7937;48.090;16.212;2023-02-28T00:38:50;98662.63;;;0.47;59.82
15674;BME280;7937;48.090;16.212;2023-02-28T00:41:52;98666.06;;;0.47;59.40
15674;BME280;7937;48.090;16.212;2023-02-28T00:44:55;98663.59;;;0.46;59.66
15674;BME280;7937;48.090;16.212;2023-02-28T00:47:57;98660.63;;;0.41;60.09
15674;BME280;7937;48.090;16.212;2023-02-28T00:50:59;98654.69;;;0.39;60.41
15674;BME280;7937;48.090;16.212;2023-02-28T00:54:01;98658.28;;;0.38;60.59
15674;BME280;7937;48.090;16.212;2023-02-28T00:57:03;98654.19;;;0.35;60.85
15674;BME280;7937;48.090;16.212;2023-02-28T01:00:08;98653.22;;;0.36;60.71
15674;BME280;7937;48.090;16.212;2023-02-28T01:03:10;98582.84;;;-0.03;60.25
15674;BME280;7937;48.090;16.212;2023-02-28T01:06:12;98600.44;;;0.05;60.12
15674;BME280;7937;48.090;16.212;2023-02-28T01:09:14;98627.75;;;0.29;59.78
15674;BME280;7937;48.090;16.212;2023-02-28T01:12:16;98660.38;;;0.52;59.91
15674;BME280;7937;48.090;16.212;2023-02-28T01:15:21;98659.75;;;0.58;59.29
15674;BME280;7937;48.090;16.212;2023-02-28T01:18:23;98590.81;;;0.14;59.21
15674;BME280;7937;48.090;16.212;2023-02-28T01:21:26;98661.19;;;0.52;59.05
15674;BME280;7937;48.090;16.212;2023-02-28T01:24:28;98634.34;;;0.33;59.62
15674;BME280;7937;48.090;16.212;2023-02-28T01:27:30;98662.91;;;0.44;60.08
15674;BME280;7937;48.090;16.212;2023-02-28T01:30:33;98609.97;;;0.14;59.31
15674;BME280;7937;48.090;16.212;2023-02-28T01:33:35;98662.25;;;0.42;59.44
15674;BME280;7937;48.090;16.212;2023-02-28T01:36:37;98664.88;;;0.42;59.91
15674;BME280;7937;48.090;16.212;2023-02-28T01:39:39;98598.25;;;0.01;59.63
15674;BME280;7937;48.090;16.212;2023-02-28T01:42:41;98666.53;;;0.43;59.35
15674;BME280;7937;48.090;16.212;2023-02-28T01:45:43;98664.72;;;0.43;60.17
15674;BME280;7937;48.090;16.212;2023-02-28T01:48:56;98645.44;;;0.27;59.52
15674;BME280;7937;48.090;16.212;2023-02-28T01:52:01;98666.84;;;0.40;58.94
15674;BME280;7937;48.090;16.212;2023-02-28T01:55:06;98666.97;;;0.38;58.86
15674;BME280;7937;48.090;16.212;2023-02-28T01:58:10;98645.59;;;0.25;58.74
15674;BME280;7937;48.090;16.212;2023-02-28T02:01:12;98613.00;;;0.02;58.96
15674;BME280;7937;48.090;16.212;2023-02-28T02:04:26;98656.28;;;0.32;59.06
15674;BME280;7937;48.090;16.212;2023-02-28T02:07:33;98660.03;;;0.29;59.18
15674;BME280;7937;48.090;16.212;2023-02-28T02:10:42;98668.13;;;0.36;59.72
15674;BME280;7937;48.090;16.212;2023-02-28T02:17:06;98658.53;;;0.44;59.09
15674;BME280;7937;48.090;16.212;2023-02-28T02:20:45;98671.63;;;0.44;60.45
15674;BME280;7937;48.090;16.212;2023-02-28T02:27:39;98654.84;;;0.37;60.94
15674;BME280;7937;48.090;16.212;2023-02-28T02:31:04;98650.06;;;0.33;60.97
15674;BME280;7937;48.090;16.212;2023-02-28T02:38:04;98649.88;;;0.26;60.96
15674;BME280;7937;48.090;16.212;2023-02-28T02:41:39;98643.06;;;0.15;61.32
15674;BME280;7937;48.090;16.212;2023-02-28T02:44:47;98607.03;;;-0.09;61.05
15674;BME280;7937;48.090;16.212;2023-02-28T02:47:51;98646.34;;;0.17;61.40
15674;BME280;7937;48.090;16.212;2023-02-28T02:50:59;98650.69;;;0.09;61.58
15674;BME280;7937;48.090;16.212;2023-02-28T02:54:11;98655.88;;;0.01;61.62
15674;BME280;7937;48.090;16.212;2023-02-28T02:57:23;98648.47;;;-0.04;61.93
15674;BME280;7937;48.090;16.212;2023-02-28T03:00:33;98654.66;;;-0.05;61.78
15674;BME280;7937;48.090;16.212;2023-02-28T03:03:37;98660.75;;;-0.05;62.13
15674;BME280;7937;48.090;16.212;2023-02-28T03:06:39;98656.47;;;-0.06;61.74
15674;BME280;7937;48.090;16.212;2023-02-28T03:09:51;98655.66;;;-0.06;61.42
15674;BME280;7937;48.090;16.212;2023-02-28T03:13:03;98655.66;;;-0.06;61.67
15674;BME280;7937;48.090;16.212;2023-02-28T03:16:32;98658.88;;;-0.12;61.82
15674;BME280;7937;48.090;16.212;2023-02-28T03:24:14;98663.81;;;-0.27;61.77
15674;BME280;7937;48.090;16.212;2023-02-28T03:27:19;98658.63;;;-0.37;62.25
15674;BME280;7937;48.090;16.212;2023-02-28T03:30:49;98620.00;;;-0.70;62.66
15674;BME280;7937;48.090;16.212;2023-02-28T03:34:01;98620.75;;;-0.78;62.68
15674;BME280;7937;48.090;16.212;2023-02-28T03:37:10;98625.06;;;-0.87;63.01
15674;BME280;7937;48.090;16.212;2023-02-28T03:40:17;98634.31;;;-0.92;63.63
15674;BME280;7937;48.090;16.212;2023-02-28T03:43:28;98628.69;;;-0.97;63.27
15674;BME280;7937;48.090;16.212;2023-02-28T03:46:36;98654.66;;;-0.86;63.05
15674;BME280;7937;48.090;16.212;2023-02-28T03:49:44;98661.97;;;-0.90;63.65
15674;BME280;7937;48.090;16.212;2023-02-28T03:52:53;98581.41;;;-1.41;63.57
15674;BME280;7937;48.090;16.212;2023-02-28T03:56:07;98651.03;;;-1.03;63.67
15674;BME280;7937;48.090;16.212;2023-02-28T03:59:18;98649.94;;;-1.10;63.71
15674;BME280;7937;48.090;16.212;2023-02-28T04:02:20;98596.34;;;-1.61;64.08
15674;BME280;7937;48.090;16.212;2023-02-28T04:05:22;98613.47;;;-1.49;63.65
15674;BME280;7937;48.090;16.212;2023-02-28T04:08:24;98657.66;;;-1.18;64.19
15674;BME280;7937;48.090;16.212;2023-02-28T04:11:33;98654.22;;;-1.19;64.34
15674;BME280;7937;48.090;16.212;2023-02-28T04:14:36;98659.88;;;-1.23;64.31
15674;BME280;7937;48.090;16.212;2023-02-28T04:17:38;98665.09;;;-1.23;64.13
15674;BME280;7937;48.090;16.212;2023-02-28T04:20:40;98658.13;;;-1.23;64.54
15674;BME280;7937;48.090;16.212;2023-02-28T04:23:42;98654.97;;;-1.26;64.76
15674;BME280;7937;48.090;16.212;2023-02-28T04:26:47;98659.88;;;-1.23;65.22
15674;BME280;7937;48.090;16.212;2023-02-28T04:29:49;98659.59;;;-1.20;65.12
15674;BME280;7937;48.090;16.212;2023-02-28T04:32:51;98645.16;;;-1.24;64.95
15674;BME280;7937;48.090;16.212;2023-02-28T04:36:04;98658.75;;;-1.11;64.34
15674;BME280;7937;48.090;16.212;2023-02-28T04:39:06;98666.31;;;-1.08;64.80
15674;BME280;7937;48.090;16.212;2023-02-28T04:42:09;98668.47;;;-1.04;64.73
15674;BME280;7937;48.090;16.212;2023-02-28T04:45:11;98663.66;;;-0.98;64.73
15674;BME280;7937;48.090;16.212;2023-02-28T04:48:13;98672.41;;;-0.90;64.63
15674;BME280;7937;48.090;16.212;2023-02-28T04:51:17;98667.13;;;-0.80;63.93
15674;BME280;7937;48.090;16.212;2023-02-28T04:54:20;98669.03;;;-0.72;63.74
15674;BME280;7937;48.090;16.212;2023-02-28T04:57:22;98666.81;;;-0.67;63.42
15674;BME280;7937;48.090;16.212;2023-02-28T05:00:24;98667.19;;;-0.62;63.28
15674;BME280;7937;48.090;16.212;2023-02-28T05:03:26;98665.94;;;-0.58;62.91
15674;BME280;7937;48.090;16.212;2023-02-28T05:06:31;98667.31;;;-0.54;62.54
15674;BME280;7937;48.090;16.212;2023-02-28T05:09:33;98662.72;;;-0.52;62.60
15674;BME280;7937;48.090;16.212;2023-02-28T05:12:36;98635.16;;;-0.74;62.83
15674;BME280;7937;48.090;16.212;2023-02-28T05:15:38;98661.91;;;-0.53;62.68
15674;BME280;7937;48.090;16.212;2023-02-28T05:18:41;98663.84;;;-0.55;62.79
15674;BME280;7937;48.090;16.212;2023-02-28T05:21:52;98661.28;;;-0.64;62.04
15674;BME280;7937;48.090;16.212;2023-02-28T05:24:54;98653.94;;;-0.79;62.91
15674;BME280;7937;48.090;16.212;2023-02-28T05:27:56;98662.50;;;-0.86;62.98
15674;BME280;7937;48.090;16.212;2023-02-28T05:30:58;98662.09;;;-0.91;63.31
15674;BME280;7937;48.090;16.212;2023-02-28T05:34:00;98665.88;;;-1.04;64.16
15674;BME280;7937;48.090;16.212;2023-02-28T05:37:02;98661.91;;;-1.08;64.13
15674;BME280;7937;48.090;16.212;2023-02-28T05:40:06;98667.41;;;-1.11;63.82
15674;BME280;7937;48.090;16.212;2023-02-28T05:43:11;98609.09;;;-1.58;64.09
15674;BME280;7937;48.090;16.212;2023-02-28T05:46:13;98672.28;;;-1.25;64.36
15674;BME280;7937;48.090;16.212;2023-02-28T05:49:15;98678.75;;;-1.30;64.10
15674;BME280;7937;48.090;16.212;2023-02-28T05:52:18;98651.59;;;-1.56;64.33
15674;BME280;7937;48.090;16.212;2023-02-28T05:55:20;98683.06;;;-1.48;64.82
15674;BME280;7937;48.090;16.212;2023-02-28T05:58:22;98686.53;;;-1.47;64.54
15674;BME280;7937;48.090;16.212;2023-02-28T06:01:42;98686.53;;;-1.47;64.54
15674;BME280;7937;48.090;16.212;2023-02-28T06:04:49;98688.03;;;-1.54;64.90
15674;BME280;7937;48.090;16.212;2023-02-28T06:07:51;98705.91;;;-1.60;65.10
15674;BME280;7937;48.090;16.212;2023-02-28T06:10:53;98703.56;;;-1.63;65.30
15674;BME280;7937;48.090;16.212;2023-02-28T06:13:57;98661.69;;;-1.90;65.36
15674;BME280;7937;48.090;16.212;2023-02-28T06:17:01;98692.84;;;-1.69;65.43
15674;BME280;7937;48.090;16.212;2023-02-28T06:20:05;98699.88;;;-1.70;65.52
15674;BME280;7937;48.090;16.212;2023-02-28T06:23:07;98701.53;;;-1.69;65.38
15674;BME280;7937;48.090;16.212;2023-02-28T06:26:09;98701.41;;;-1.67;65.00
15674;BME280;7937;48.090;16.212;2023-02-28T06:29:12;98702.63;;;-1.62;65.06
15674;BME280;7937;48.090;16.212;2023-02-28T06:32:18;98705.34;;;-1.53;64.89
15674;BME280;7937;48.090;16.212;2023-02-28T06:35:21;98710.56;;;-1.44;64.22
15674;BME280;7937;48.090;16.212;2023-02-28T06:38:23;98712.63;;;-1.38;64.68
15674;BME280;7937;48.090;16.212;2023-02-28T06:41:26;98689.13;;;-1.47;64.65
15674;BME280;7937;48.090;16.212;2023-02-28T06:44:29;98724.53;;;-1.16;64.20
15674;BME280;7937;48.090;16.212;2023-02-28T06:47:38;98726.47;;;-1.08;63.46
15674;BME280;7937;48.090;16.212;2023-02-28T06:50:40;98718.16;;;-1.04;63.30
15674;BME280;7937;48.090;16.212;2023-02-28T06:53:42;98722.16;;;-1.09;63.57
15674;BME280;7937;48.090;16.212;2023-02-28T06:56:44;98722.06;;;-1.08;64.17
15674;BME280;7937;48.090;16.212;2023-02-28T06:59:46;98724.25;;;-1.03;64.28
15674;BME280;7937;48.090;16.212;2023-02-28T07:02:48;98720.06;;;-0.96;64.05
15674;BME280;7937;48.090;16.212;2023-02-28T07:05:50;98719.81;;;-0.93;64.58
15674;BME280;7937;48.090;16.212;2023-02-28T07:08:53;98687.63;;;-1.03;64.65
15674;BME280;7937;48.090;16.212;2023-02-28T07:11:55;98727.16;;;-0.69;64.50
15674;BME280;7937;48.090;16.212;2023-02-28T07:14:58;98729.81;;;-0.51;64.55
15674;BME280;7937;48.090;16.212;2023-02-28T07:18:00;98726.91;;;-0.30;64.41
15674;BME280;7937;48.090;16.212;2023-02-28T07:21:07;98733.13;;;-0.04;63.54
15674;BME280;7937;48.090;16.212;2023-02-28T07:24:09;98728.47;;;0.26;62.60
15674;BME280;7937;48.090;16.212;2023-02-28T07:27:12;98729.31;;;0.44;61.47
15674;BME280;7937;48.090;16.212;2023-02-28T07:30:14;98734.66;;;0.61;61.23
15674;BME280;7937;48.090;16.212;2023-02-28T07:33:16;98716.22;;;0.70;60.54
15674;BME280;7937;48.090;16.212;2023-02-28T07:36:18;98728.34;;;0.97;59.75
15674;BME280;7937;48.090;16.212;2023-02-28T07:39:21;98724.50;;;1.10;59.15
15674;BME280;7937;48.090;16.212;2023-02-28T07:42:23;98721.44;;;1.22;58.34
15674;BME280;7937;48.090;16.212;2023-02-28T07:45:25;98708.16;;;1.24;57.49
15674;BME280;7937;48.090;16.212;2023-02-28T07:48:28;98696.34;;;1.28;57.25
15674;BME280;7937;48.090;16.212;2023-02-28T07:51:30;98673.91;;;1.34;56.91
15674;BME280;7937;48.090;16.212;2023-02-28T07:54:33;98731.38;;;1.95;55.75
15674;BME280;7937;48.090;16.212;2023-02-28T07:57:35;98703.78;;;1.91;54.38
15674;BME280;7937;48.090;16.212;2023-02-28T08:00:37;98738.47;;;2.03;55.26
15674;BME280;7937;48.090;16.212;2023-02-28T08:03:40;98741.63;;;2.23;55.07
15674;BME280;7937;48.090;16.212;2023-02-28T08:06:42;98744.94;;;2.49;53.66
15674;BME280;7937;48.090;16.212;2023-02-28T08:09:44;98739.50;;;2.59;53.17
15674;BME280;7937;48.090;16.212;2023-02-28T08:12:46;98741.47;;;2.73;52.48
15674;BME280;7937;48.090;16.212;2023-02-28T08:15:48;98678.19;;;2.50;52.08
15674;BME280;7937;48.090;16.212;2023-02-28T08:18:51;98739.78;;;3.05;50.52
15674;BME280;7937;48.090;16.212;2023-02-28T08:21:54;98740.63;;;2.97;49.79
15674;BME280;7937;48.090;16.212;2023-02-28T08:24:56;98745.34;;;3.18;49.60
15674;BME280;7937;48.090;16.212;2023-02-28T08:27:58;98696.19;;;3.10;49.13
15674;BME280;7937;48.090;16.212;2023-02-28T08:31:00;98740.91;;;3.66;48.69
15674;BME280;7937;48.090;16.212;2023-02-28T08:34:10;98739.28;;;3.96;48.43
15674;BME280;7937;48.090;16.212;2023-02-28T08:37:12;98748.97;;;4.27;47.23
15674;BME280;7937;48.090;16.212;2023-02-28T08:40:15;98743.44;;;4.45;46.48
15674;BME280;7937;48.090;16.212;2023-02-28T08:43:19;98751.50;;;5.04;45.38
15674;BME280;7937;48.090;16.212;2023-02-28T08:46:22;98749.63;;;5.27;44.50
15674;BME280;7937;48.090;16.212;2023-02-28T08:49:25;98719.09;;;5.54;43.49
15674;BME280;7937;48.090;16.212;2023-02-28T08:52:27;98747.38;;;6.05;42.31
15674;BME280;7937;48.090;16.212;2023-02-28T08:55:29;98689.28;;;5.46;42.78
15674;BME280;7937;48.090;16.212;2023-02-28T08:58:32;98740.84;;;5.71;42.84
15674;BME280;7937;48.090;16.212;2023-02-28T09:01:35;98762.28;;;5.47;43.59
15674;BME280;7937;48.090;16.212;2023-02-28T09:04:38;98753.91;;;5.13;44.34
15674;BME280;7937;48.090;16.212;2023-02-28T09:07:40;98751.28;;;4.90;45.09
15674;BME280;7937;48.090;16.212;2023-02-28T09:10:42;98752.31;;;5.04;44.93
15674;BME280;7937;48.090;16.212;2023-02-28T09:13:45;98745.44;;;5.18;45.28
15674;BME280;7937;48.090;16.212;2023-02-28T09:16:47;98744.41;;;5.04;44.72
15674;BME280;7937;48.090;16.212;2023-02-28T09:19:49;98751.78;;;5.09;46.18
15674;BME280;7937;48.090;16.212;2023-02-28T09:22:51;98747.16;;;5.26;45.59
15674;BME280;7937;48.090;16.212;2023-02-28T09:25:54;98750.25;;;5.44;45.02
15674;BME280;7937;48.090;16.212;2023-02-28T09:28:56;98678.03;;;5.22;44.64
15674;BME280;7937;48.090;16.212;2023-02-28T09:32:01;98682.38;;;5.30;44.75
15674;BME280;7937;48.090;16.212;2023-02-28T09:35:04;98742.41;;;5.51;44.85
15674;BME280;7937;48.090;16.212;2023-02-28T09:38:06;98722.34;;;5.71;44.76
15674;BME280;7937;48.090;16.212;2023-02-28T09:41:23;98744.66;;;5.83;44.16
15674;BME280;7937;48.090;16.212;2023-02-28T09:44:40;98741.31;;;5.60;44.13
15674;BME280;7937;48.090;16.212;2023-02-28T09:47:47;98748.44;;;5.44;45.00
15674;BME280;7937;48.090;16.212;2023-02-28T09:50:59;98706.06;;;5.53;45.03
15674;BME280;7937;48.090;16.212;2023-02-28T09:54:02;98740.47;;;6.25;43.76
15674;BME280;7937;48.090;16.212;2023-02-28T10:00:23;98749.69;;;6.72;42.82
15674;BME280;7937;48.090;16.212;2023-02-28T10:03:39;98755.09;;;7.13;42.40
15674;BME280;7937;48.090;16.212;2023-02-28T10:06:49;98730.78;;;7.03;41.58
15674;BME280;7937;48.090;16.212;2023-02-28T10:09:55;98766.22;;;6.53;42.47
15674;BME280;7937;48.090;16.212;2023-02-28T10:13:03;98764.38;;;6.53;43.21
15674;BME280;7937;48.090;16.212;2023-02-28T10:16:08;98767.34;;;6.86;42.79
15674;BME280;7937;48.090;16.212;2023-02-28T10:22:26;98687.25;;;5.77;43.20
15674;BME280;7937;48.090;16.212;2023-02-28T10:25:30;98750.69;;;6.07;43.95
15674;BME280;7937;48.090;16.212;2023-02-28T10:28:32;98757.97;;;5.90;44.00
15674;BME280;7937;48.090;16.212;2023-02-28T10:31:34;98745.69;;;5.97;44.29
15674;BME280;7937;48.090;16.212;2023-02-28T10:34:36;98752.47;;;6.42;42.98
15674;BME280;7937;48.090;16.212;2023-02-28T10:37:40;98738.97;;;6.59;42.81
15674;BME280;7937;48.090;16.212;2023-02-28T10:40:42;98730.34;;;6.71;42.50
15674;BME280;7937;48.090;16.212;2023-02-28T10:43:44;98715.22;;;6.65;42.66
15674;BME280;7937;48.090;16.212;2023-02-28T10:46:50;98730.44;;;7.13;41.91
15674;BME280;7937;48.090;16.212;2023-02-28T10:49:52;98695.31;;;7.04;41.23
15674;BME280;7937;48.090;16.212;2023-02-28T10:52:55;98735.00;;;7.26;41.16
15674;BME280;7937;48.090;16.212;2023-02-28T11:02:42;98723.03;;;7.78;41.35
15674;BME280;7937;48.090;16.212;2023-02-28T11:05:46;98713.00;;;8.27;39.71
15674;BME280;7937;48.090;16.212;2023-02-28T11:09:15;98710.53;;;8.19;38.48
15674;BME280;7937;48.090;16.212;2023-02-28T11:12:20;98717.53;;;8.47;37.52
15674;BME280;7937;48.090;16.212;2023-02-28T11:15:29;98718.56;;;8.66;37.01
15674;BME280;7937;48.090;16.212;2023-02-28T11:22:07;98702.25;;;8.62;37.73
15674;BME280;7937;48.090;16.212;2023-02-28T11:25:16;98698.13;;;8.79;37.37
15674;BME280;7937;48.090;16.212;2023-02-28T11:28:32;98696.28;;;8.93;37.04
15674;BME280;7937;48.090;16.212;2023-02-28T11:31:35;98699.97;;;8.66;36.46
15674;BME280;7937;48.090;16.212;2023-02-28T11:34:38;98692.84;;;8.53;37.14
15674;BME280;7937;48.090;16.212;2023-02-28T11:37:41;98694.38;;;8.21;36.73
15674;BME280;7937;48.090;16.212;2023-02-28T11:47:43;98678.63;;;7.99;36.53
15674;BME280;7937;48.090;16.212;2023-02-28T11:51:13;98684.56;;;7.12;37.31
15674;BME280;7937;48.090;16.212;2023-02-28T12:07:16;98685.00;;;5.95;40.48
15674;BME280;7937;48.090;16.212;2023-02-28T12:10:29;98664.53;;;5.83;40.99
15674;BME280;7937;48.090;16.212;2023-02-28T12:13:42;98675.34;;;5.88;40.78
15674;BME280;7937;48.090;16.212;2023-02-28T12:26:53;98658.44;;;7.03;39.88
15674;BME280;7937;48.090;16.212;2023-02-28T12:30:21;98656.88;;;7.15;39.46
15674;BME280;7937;48.090;16.212;2023-02-28T12:33:28;98625.16;;;6.93;39.51
15674;BME280;7937;48.090;16.212;2023-02-28T12:36:34;98595.69;;;6.40;39.88
15674;BME280;7937;48.090;16.212;2023-02-28T12:39:42;98655.66;;;6.83;39.98
15674;BME280;7937;48.090;16.212;2023-02-28T12:42:52;98653.22;;;6.81;40.07
15674;BME280;7937;48.090;16.212;2023-02-28T12:46:00;98649.28;;;6.70;40.49
15674;BME280;7937;48.090;16.212;2023-02-28T12:49:15;98646.97;;;6.61;40.87
15674;BME280;7937;48.090;16.212;2023-02-28T12:55:48;98644.56;;;6.16;42.38
15674;BME280;7937;48.090;16.212;2023-02-28T12:58:55;98642.69;;;5.95;42.30
15674;BME280;7937;48.090;16.212;2023-02-28T13:09:12;98624.53;;;5.71;42.80
15674;BME280;7937;48.090;16.212;2023-02-28T13:12:16;98655.13;;;5.80;42.63
15674;BME280;7937;48.090;16.212;2023-02-28T13:18:37;98648.38;;;5.41;43.73
15674;BME280;7937;48.090;16.212;2023-02-28T13:21:43;98639.25;;;5.59;43.69
15674;BME280;7937;48.090;16.212;2023-02-28T13:24:49;98641.94;;;5.65;43.65
15674;BME280;7937;48.090;16.212;2023-02-28T13:27:54;98598.38;;;5.40;43.57
15674;BME280;7937;48.090;16.212;2023-02-28T13:31:02;98632.72;;;5.76;43.25
15674;BME280;7937;48.090;16.212;2023-02-28T13:34:06;98634.59;;;5.97;43.24
15674;BME280;7937;48.090;16.212;2023-02-28T13:40:33;98555.69;;;5.58;43.02
15674;BME280;7937;48.090;16.212;2023-02-28T13:47:25;98623.78;;;5.92;42.27
15674;BME280;7937;48.090;16.212;2023-02-28T13:50:38;98639.41;;;5.72;42.78
15674;BME280;7937;48.090;16.212;2023-02-28T13:53:54;98644.91;;;5.41;43.23
15674;BME280;7937;48.090;16.212;2023-02-28T14:07:21;98643.84;;;5.21;43.76
15674;BME280;7937;48.090;16.212;2023-02-28T14:11:03;98642.56;;;5.31;43.43
15674;BME280;7937;48.090;16.212;2023-02-28T14:14:07;98639.28;;;5.29;43.79
15674;BME280;7937;48.090;16.212;2023-02-28T14:17:15;98587.59;;;4.90;43.14
15674;BME280;7937;48.090;16.212;2023-02-28T14:20:20;98632.66;;;5.18;43.21
15674;BME280;7937;48.090;16.212;2023-02-28T14:37:16;98616.00;;;5.18;44.14
15674;BME280;7937;48.090;16.212;2023-02-28T14:40:31;98633.38;;;5.27;44.42
15674;BME280;7937;48.090;16.212;2023-02-28T14:43:34;98621.00;;;5.28;44.62
15674;BME280;7937;48.090;16.212;2023-02-28T14:46:38;98622.13;;;5.04;44.21
15674;BME280;7937;48.090;16.212;2023-02-28T14:49:45;98622.19;;;5.10;44.20
15674;BME280;7937;48.090;16.212;2023-02-28T14:52:53;98616.81;;;5.18;44.14
15674;BME280;7937;48.090;16.212;2023-02-28T14:55:56;98624.53;;;5.20;44.26
15674;BME280;7937;48.090;16.212;2023-02-28T14:58:58;98621.91;;;5.20;44.10
15674;BME280;7937;48.090;16.212;2023-02-28T15:02:34;98620.63;;;5.16;44.54
15674;BME280;7937;48.090;16.212;2023-02-28T15:05:36;98576.22;;;4.75;44.66
15674;BME280;7937;48.090;16.212;2023-02-28T15:08:39;98618.38;;;4.98;45.14
15674;BME280;7937;48.090;16.212;2023-02-28T15:11:41;98624.91;;;4.87;45.44
15674;BME280;7937;48.090;16.212;2023-02-28T15:14:46;98562.56;;;4.42;45.24
15674;BME280;7937;48.090;16.212;2023-02-28T15:17:55;98636.94;;;4.90;45.27
15674;BME280;7937;48.090;16.212;2023-02-28T15:21:03;98633.84;;;4.72;45.29
15674;BME280;7937;48.090;16.212;2023-02-28T15:27:27;98634.56;;;4.65;45.33
15674;BME280;7937;48.090;16.212;2023-02-28T15:30:31;98635.28;;;4.59;45.58
15674;BME280;7937;48.090;16.212;2023-02-28T15:33:34;98634.19;;;4.54;45.36
15674;BME280;7937;48.090;16.212;2023-02-28T15:36:36;98640.63;;;4.51;46.21
15674;BME280;7937;48.090;16.212;2023-02-28T15:39:42;98642.16;;;4.46;46.76
15674;BME280;7937;48.090;16.212;2023-02-28T15:43:15;98640.50;;;4.30;48.06
15674;BME280;7937;48.090;16.212;2023-02-28T15:46:19;98650.28;;;4.21;48.32
15674;BME280;7937;48.090;16.212;2023-02-28T15:49:22;98645.59;;;4.08;49.92
15674;BME280;7937;48.090;16.212;2023-02-28T15:52:32;98649.53;;;3.90;51.02
15674;BME280;7937;48.090;16.212;2023-02-28T15:55:36;98653.09;;;3.74;50.95
15674;BME280;7937;48.090;16.212;2023-02-28T15:58:38;98658.63;;;3.56;51.41
15674;BME280;7937;48.090;16.212;2023-02-28T16:01:40;98645.69;;;3.46;51.40
15674;BME280;7937;48.090;16.212;2023-02-28T16:05:23;98648.69;;;3.35;52.01
15674;BME280;7937;48.090;16.212;2023-02-28T16:08:29;98661.59;;;3.22;52.07
15674;BME280;7937;48.090;16.212;2023-02-28T16:11:33;98647.19;;;3.01;53.56
15674;BME280;7937;48.090;16.212;2023-02-28T16:14:36;98651.81;;;2.91;53.45
15674;BME280;7937;48.090;16.212;2023-02-28T16:17:40;98656.59;;;2.79;53.33
15674;BME280;7937;48.090;16.212;2023-02-28T16:20:42;98650.88;;;2.68;54.01
15674;BME280;7937;48.090;16.212;2023-02-28T16:23:46;98659.91;;;2.65;54.84
15674;BME280;7937;48.090;16.212;2023-02-28T16:26:50;98658.97;;;2.50;55.71
15674;BME280;7937;48.090;16.212;2023-02-28T16:29:54;98661.59;;;2.33;55.78
15674;BME280;7937;48.090;16.212;2023-02-28T16:32:56;98596.72;;;1.85;55.46
15674;BME280;7937;48.090;16.212;2023-02-28T16:35:58;98645.16;;;1.91;56.19
15674;BME280;7937;48.090;16.212;2023-02-28T16:39:01;98669.78;;;1.90;56.81
15674;BME280;7937;48.090;16.212;2023-02-28T16:42:04;98666.81;;;1.68;56.76
15674;BME280;7937;48.090;16.212;2023-02-28T16:45:18;98679.59;;;1.63;57.02
15674;BME280;7937;48.090;16.212;2023-02-28T16:48:21;98683.81;;;1.48;57.39
15674;BME280;7937;48.090;16.212;2023-02-28T16:51:24;98687.41;;;1.39;58.07
15674;BME280;7937;48.090;16.212;2023-02-28T16:54:27;98678.16;;;1.26;57.85
15674;BME280;7937;48.090;16.212;2023-02-28T16:57:29;98689.28;;;1.20;58.30
15674;BME280;7937;48.090;16.212;2023-02-28T17:00:34;98693.81;;;1.10;58.64
15674;BME280;7937;48.090;16.212;2023-02-28T17:03:38;98665.31;;;0.81;59.43
15674;BME280;7937;48.090;16.212;2023-02-28T17:06:42;98703.38;;;0.93;59.42
15674;BME280;7937;48.090;16.212;2023-02-28T17:09:44;98706.81;;;0.86;59.48
15674;BME280;7937;48.090;16.212;2023-02-28T17:12:47;98709.38;;;0.77;60.15
15674;BME280;7937;48.090;16.212;2023-02-28T17:15:50;98708.63;;;0.67;60.25
15674;BME280;7937;48.090;16.212;2023-02-28T17:18:54;98650.63;;;0.18;60.33
15674;BME280;7937;48.090;16.212;2023-02-28T17:21:58;98720.50;;;0.54;61.07
15674;BME280;7937;48.090;16.212;2023-02-28T17:25:02;98715.59;;;0.50;60.63
15674;BME280;7937;48.090;16.212;2023-02-28T17:28:05;98715.22;;;0.45;61.21
15674;BME280;7937;48.090;16.212;2023-02-28T17:31:08;98718.41;;;0.39;61.20
15674;BME280;7937;48.090;16.212;2023-02-28T17:34:13;98717.38;;;0.32;61.26
15674;BME280;7937;48.090;16.212;2023-02-28T17:37:20;98716.03;;;0.28;61.49
15674;BME280;7937;48.090;16.212;2023-02-28T17:40:24;98715.66;;;0.23;61.84
15674;BME280;7937;48.090;16.212;2023-02-28T17:43:26;98706.91;;;0.14;61.87
15674;BME280;7937;48.090;16.212;2023-02-28T17:46:31;98710.22;;;0.16;61.86
15674;BME280;7937;48.090;16.212;2023-02-28T17:49:35;98655.34;;;-0.21;61.63
15674;BME280;7937;48.090;16.212;2023-02-28T17:52:38;98716.56;;;0.14;61.52
15674;BME280;7937;48.090;16.212;2023-02-28T17:55:40;98714.25;;;0.11;61.82
15674;BME280;7937;48.090;16.212;2023-02-28T17:58:43;98718.16;;;0.07;61.72
15674;BME280;7937;48.090;16.212;2023-02-28T18:01:45;98715.00;;;0.03;61.60
15674;BME280;7937;48.090;16.212;2023-02-28T18:04:48;98720.84;;;-0.03;61.51
15674;BME280;7937;48.090;16.212;2023-02-28T18:07:51;98722.69;;;-0.13;62.15
15674;BME280;7937;48.090;16.212;2023-02-28T18:10:54;98720.69;;;-0.19;62.04
15674;BME280;7937;48.090;16.212;2023-02-28T18:13:57;98714.22;;;-0.25;62.74
15674;BME280;7937;48.090;16.212;2023-02-28T18:17:01;98717.97;;;-0.28;62.77
15674;BME280;7937;48.090;16.212;2023-02-28T18:20:04;98681.91;;;-0.61;62.63
15674;BME280;7937;48.090;16.212;2023-02-28T18:23:06;98679.16;;;-0.60;63.01